KCWA Airport Information

Runway Information
Runway 08 Length 7645 ft width 150 ft
Elevation 1273 ft Threshold 0 ft Heading 77
Runway 26 Length 7645 ft Width 150 ft
Elevation 1260 ft Threshold 0 ft Heading 257
Runway 17 Length 6501 ft width 150 ft
Elevation 1277 ft Threshold 0 ft Heading 170
Runway 35 Length 6501 ft Width 150 ft
Elevation 1232 ft Threshold 0 ft Heading 350
Airport Frequencies
Type ATIS Name ATIS Frequency 127.45 MHZ
Type AWOS Name AWOS 3 Frequency 127.45 MHZ
Type CNTR Name MINNEAPOLI Frequency 124.4 MHZ
Type CTAF Name CTAF Frequency 119.75 MHZ
Type GND Name GND Frequency 121.9 MHZ
Type RDO Name GREEN BAY Frequency 122.525 MHZ
Type TWR Name TWR Frequency 119.75 MHZ
Type UNIC Name UNICOM Frequency 122.95 MHZ
Airport Navaids
Airport Weather Information & NOTAM
ADDS - METARS form results

(0833 UTC 14 October 2019)
Data provider http://aviationweather.gov/metar/data/
 
METAR text: KCWA 140815Z AUTO 25005KT 10SM SCT045 00/M01 A2989 RMK AO2
Conditions at: KCWA (MOSINEE/CENTRAL , WI, US) observed 0815 UTC 14 October 2019
Temperature: 0.0°C (32°F)
Dewpoint: -1.0°C (30°F) [RH = 93%]
Pressure (altimeter): 29.89 inches Hg (1012.3 mb)
Winds: from the WSW (250 degrees) at 6 MPH (5 knots; 2.6 m/s)
Visibility: 10 or more miles (16+ km)
Ceiling: at least 12,000 feet AGL
Clouds: scattered clouds at 4500 feet AGL
Weather: automated observation with no human augmentation;
there may or may not be significant weather present at this time

METAR text: KCWA 140755Z AUTO 26006KT 10SM CLR 00/00 A2989 RMK AO2
Conditions at: KCWA (MOSINEE/CENTRAL , WI, US) observed 0755 UTC 14 October 2019
Temperature: 0.0°C (32°F)
Dewpoint: 0.0°C (32°F) [RH = 100%]
Pressure (altimeter): 29.89 inches Hg (1012.3 mb)
Winds: from the W (260 degrees) at 7 MPH (6 knots; 3.1 m/s)
Visibility: 10 or more miles (16+ km)
Ceiling: at least 12,000 feet AGL
Clouds: sky clear below 12,000 feet AGL
Weather: automated observation with no human augmentation;
there may or may not be significant weather present at this time

METAR text: KCWA 140735Z AUTO 26007KT 10SM CLR 00/00 A2989 RMK AO2
Conditions at: KCWA (MOSINEE/CENTRAL , WI, US) observed 0735 UTC 14 October 2019
Temperature: 0.0°C (32°F)
Dewpoint: 0.0°C (32°F) [RH = 100%]
Pressure (altimeter): 29.89 inches Hg (1012.3 mb)
Winds: from the W (260 degrees) at 8 MPH (7 knots; 3.6 m/s)
Visibility: 10 or more miles (16+ km)
Ceiling: at least 12,000 feet AGL
Clouds: sky clear below 12,000 feet AGL
Weather: automated observation with no human augmentation;
there may or may not be significant weather present at this time

Forecast for: KCWA (MOSINEE/CENTRAL , WI, US)
Text: KCWA 140520Z 1406/1506 27005KT P6SM BKN040
Forecast period: 0600 to 1100 UTC 14 October 2019
Forecast type: FROM: standard forecast or significant change
Winds: from the W (270 degrees) at 6 MPH (5 knots; 2.6 m/s)
Visibility: 6 or more miles 10+ km)
Ceiling: 4000 feet AGL
Clouds: broken clouds at 4000 feet AGL
Weather: no significant weather forecast for this period
Text: FM141100 28005KT P6SM BKN030
Forecast period: 1100 to 1600 UTC 14 October 2019
Forecast type: FROM: standard forecast or significant change
Winds: from the W (280 degrees) at 6 MPH (5 knots; 2.6 m/s)
Visibility: 6 or more miles 10+ km)
Ceiling: 3000 feet AGL
Clouds: broken clouds at 3000 feet AGL
Weather: no significant weather forecast for this period
Text: FM141600 27007KT P6SM BKN040
Forecast period: 1600 to 1900 UTC 14 October 2019
Forecast type: FROM: standard forecast or significant change
Winds: from the W (270 degrees) at 8 MPH (7 knots; 3.6 m/s)
Visibility: 6 or more miles 10+ km)
Ceiling: 4000 feet AGL
Clouds: broken clouds at 4000 feet AGL
Weather: no significant weather forecast for this period
Text: FM141900 25005KT P6SM SCT110
Forecast period: 1900 UTC 14 October 2019 to 0200 UTC 15 October 2019
Forecast type: FROM: standard forecast or significant change
Winds: from the WSW (250 degrees) at 6 MPH (5 knots; 2.6 m/s)
Visibility: 6 or more miles 10+ km)
Ceiling: at least 12,000 feet AGL
Clouds: scattered clouds at 11000 feet AGL
Weather: no significant weather forecast for this period
Text: FM150200 VRB03KT P6SM SCT200
Forecast period: 0200 to 0600 UTC 15 October 2019
Forecast type: FROM: standard forecast or significant change
Winds: variable direction winds at 3 MPH (3 knots; 1.5 m/s)
Visibility: 6 or more miles 10+ km)
Ceiling: at least 12,000 feet AGL
Clouds: scattered clouds at 20000 feet AGL
Weather: no significant weather forecast for this period